sensor_id;sensor_type;location;lat;lon;timestamp;P1;durP1;ratioP1;P2;durP2;ratioP2
73823;SDS011;62154;54.914;73.444;2023-03-31T00:00:53;21.48;;;6.57;;
73823;SDS011;62154;54.914;73.444;2023-03-31T00:03:23;16.38;;;6.60;;
73823;SDS011;62154;54.914;73.444;2023-03-31T00:05:54;18.80;;;5.78;;
73823;SDS011;62154;54.914;73.444;2023-03-31T00:08:29;12.85;;;4.68;;
73823;SDS011;62154;54.914;73.444;2023-03-31T00:11:02;16.75;;;5.78;;
73823;SDS011;62154;54.914;73.444;2023-03-31T00:13:37;20.48;;;6.43;;
73823;SDS011;62154;54.914;73.444;2023-03-31T00:16:06;15.25;;;6.82;;
73823;SDS011;62154;54.914;73.444;2023-03-31T00:18:34;19.00;;;5.53;;
73823;SDS011;62154;54.914;73.444;2023-03-31T00:21:10;19.20;;;6.72;;
73823;SDS011;62154;54.914;73.444;2023-03-31T00:23:40;26.58;;;8.52;;
73823;SDS011;62154;54.914;73.444;2023-03-31T00:26:10;30.73;;;8.30;;
73823;SDS011;62154;54.914;73.444;2023-03-31T00:28:37;22.60;;;8.82;;
73823;SDS011;62154;54.914;73.444;2023-03-31T00:31:04;51.00;;;17.05;;
73823;SDS011;62154;54.914;73.444;2023-03-31T00:33:32;32.70;;;11.48;;
73823;SDS011;62154;54.914;73.444;2023-03-31T00:35:59;89.45;;;27.80;;
73823;SDS011;62154;54.914;73.444;2023-03-31T00:38:28;105.60;;;33.33;;
73823;SDS011;62154;54.914;73.444;2023-03-31T00:40:56;174.55;;;53.08;;
73823;SDS011;62154;54.914;73.444;2023-03-31T00:43:28;220.98;;;70.45;;
73823;SDS011;62154;54.914;73.444;2023-03-31T00:46:22;231.23;;;69.18;;
73823;SDS011;62154;54.914;73.444;2023-03-31T00:48:54;195.35;;;55.80;;
73823;SDS011;62154;54.914;73.444;2023-03-31T00:51:25;167.60;;;48.22;;
73823;SDS011;62154;54.914;73.444;2023-03-31T00:54:01;37.30;;;11.30;;
73823;SDS011;62154;54.914;73.444;2023-03-31T00:56:32;62.00;;;18.60;;
73823;SDS011;62154;54.914;73.444;2023-03-31T00:59:01;22.35;;;7.63;;
73823;SDS011;62154;54.914;73.444;2023-03-31T01:01:29;73.30;;;18.42;;
73823;SDS011;62154;54.914;73.444;2023-03-31T01:03:57;43.92;;;13.82;;
73823;SDS011;62154;54.914;73.444;2023-03-31T01:06:25;44.10;;;12.35;;
73823;SDS011;62154;54.914;73.444;2023-03-31T01:08:56;78.22;;;21.77;;
73823;SDS011;62154;54.914;73.444;2023-03-31T01:11:25;51.63;;;14.73;;
73823;SDS011;62154;54.914;73.444;2023-03-31T01:13:54;34.45;;;11.00;;
73823;SDS011;62154;54.914;73.444;2023-03-31T01:16:32;45.13;;;13.98;;
73823;SDS011;62154;54.914;73.444;2023-03-31T01:19:00;41.13;;;10.93;;
73823;SDS011;62154;54.914;73.444;2023-03-31T01:29:58;21.10;;;6.82;;
73823;SDS011;62154;54.914;73.444;2023-03-31T01:35:18;28.50;;;8.68;;
73823;SDS011;62154;54.914;73.444;2023-03-31T01:43:22;13.50;;;4.38;;
73823;SDS011;62154;54.914;73.444;2023-03-31T01:45:57;13.82;;;4.10;;
73823;SDS011;62154;54.914;73.444;2023-03-31T01:51:21;26.43;;;8.07;;
73823;SDS011;62154;54.914;73.444;2023-03-31T01:53:57;24.90;;;8.05;;
73823;SDS011;62154;54.914;73.444;2023-03-31T02:01:30;24.77;;;7.97;;
73823;SDS011;62154;54.914;73.444;2023-03-31T02:04:00;31.65;;;9.00;;
73823;SDS011;62154;54.914;73.444;2023-03-31T02:06:30;24.95;;;7.07;;
73823;SDS011;62154;54.914;73.444;2023-03-31T02:09:01;21.23;;;6.93;;
73823;SDS011;62154;54.914;73.444;2023-03-31T02:11:29;15.10;;;5.00;;
73823;SDS011;62154;54.914;73.444;2023-03-31T02:13:57;18.48;;;6.00;;
73823;SDS011;62154;54.914;73.444;2023-03-31T02:16:48;25.92;;;9.10;;
73823;SDS011;62154;54.914;73.444;2023-03-31T02:19:16;30.17;;;7.93;;
73823;SDS011;62154;54.914;73.444;2023-03-31T02:21:48;20.90;;;6.38;;
73823;SDS011;62154;54.914;73.444;2023-03-31T02:24:16;27.88;;;8.80;;
73823;SDS011;62154;54.914;73.444;2023-03-31T02:26:46;21.85;;;4.22;;
73823;SDS011;62154;54.914;73.444;2023-03-31T02:29:15;7.10;;;2.13;;
73823;SDS011;62154;54.914;73.444;2023-03-31T02:32:09;9.20;;;2.00;;
73823;SDS011;62154;54.914;73.444;2023-03-31T02:34:38;6.35;;;1.60;;
73823;SDS011;62154;54.914;73.444;2023-03-31T02:37:05;13.65;;;1.98;;
73823;SDS011;62154;54.914;73.444;2023-03-31T02:39:33;5.55;;;2.00;;
73823;SDS011;62154;54.914;73.444;2023-03-31T02:42:01;9.88;;;2.38;;
73823;SDS011;62154;54.914;73.444;2023-03-31T02:44:33;8.00;;;2.15;;
73823;SDS011;62154;54.914;73.444;2023-03-31T02:47:07;8.23;;;2.70;;
73823;SDS011;62154;54.914;73.444;2023-03-31T02:49:48;4.70;;;1.92;;
73823;SDS011;62154;54.914;73.444;2023-03-31T03:00:20;22.88;;;6.18;;
73823;SDS011;62154;54.914;73.444;2023-03-31T03:06:41;7.60;;;3.22;;
73823;SDS011;62154;54.914;73.444;2023-03-31T03:08:45;14.93;;;4.15;;
73823;SDS011;62154;54.914;73.444;2023-03-31T03:12:10;12.40;;;3.40;;
73823;SDS011;62154;54.914;73.444;2023-03-31T03:14:27;8.68;;;2.72;;
73823;SDS011;62154;54.914;73.444;2023-03-31T03:17:04;9.35;;;2.80;;
73823;SDS011;62154;54.914;73.444;2023-03-31T03:19:33;7.22;;;3.28;;
73823;SDS011;62154;54.914;73.444;2023-03-31T03:22:00;8.30;;;2.50;;
73823;SDS011;62154;54.914;73.444;2023-03-31T03:24:27;7.38;;;2.10;;
73823;SDS011;62154;54.914;73.444;2023-03-31T03:26:55;7.68;;;2.30;;
73823;SDS011;62154;54.914;73.444;2023-03-31T03:29:22;6.93;;;2.20;;
73823;SDS011;62154;54.914;73.444;2023-03-31T03:31:50;5.22;;;2.05;;
73823;SDS011;62154;54.914;73.444;2023-03-31T03:34:21;3.25;;;1.70;;
73823;SDS011;62154;54.914;73.444;2023-03-31T03:36:51;5.13;;;1.73;;
73823;SDS011;62154;54.914;73.444;2023-03-31T03:39:18;3.75;;;1.77;;
73823;SDS011;62154;54.914;73.444;2023-03-31T03:41:45;9.65;;;1.85;;
73823;SDS011;62154;54.914;73.444;2023-03-31T03:44:12;4.78;;;1.90;;
73823;SDS011;62154;54.914;73.444;2023-03-31T03:46:39;6.07;;;1.70;;
73823;SDS011;62154;54.914;73.444;2023-03-31T03:49:07;10.65;;;2.13;;
73823;SDS011;62154;54.914;73.444;2023-03-31T03:51:34;4.00;;;1.90;;
73823;SDS011;62154;54.914;73.444;2023-03-31T03:54:02;6.30;;;1.58;;
73823;SDS011;62154;54.914;73.444;2023-03-31T03:56:29;7.07;;;2.47;;
73823;SDS011;62154;54.914;73.444;2023-03-31T03:58:57;7.78;;;1.92;;
73823;SDS011;62154;54.914;73.444;2023-03-31T04:01:24;6.55;;;1.90;;
73823;SDS011;62154;54.914;73.444;2023-03-31T04:03:52;7.43;;;1.67;;
73823;SDS011;62154;54.914;73.444;2023-03-31T04:06:19;4.40;;;1.13;;
73823;SDS011;62154;54.914;73.444;2023-03-31T04:08:46;2.85;;;1.38;;
73823;SDS011;62154;54.914;73.444;2023-03-31T04:11:16;4.55;;;1.60;;
73823;SDS011;62154;54.914;73.444;2023-03-31T04:13:44;5.63;;;1.50;;
73823;SDS011;62154;54.914;73.444;2023-03-31T04:16:11;4.22;;;1.20;;
73823;SDS011;62154;54.914;73.444;2023-03-31T04:18:38;3.55;;;1.10;;
73823;SDS011;62154;54.914;73.444;2023-03-31T04:21:09;3.25;;;1.30;;
73823;SDS011;62154;54.914;73.444;2023-03-31T04:23:38;3.25;;;1.20;;
73823;SDS011;62154;54.914;73.444;2023-03-31T04:26:13;5.72;;;1.80;;
73823;SDS011;62154;54.914;73.444;2023-03-31T04:28:40;4.72;;;1.80;;
73823;SDS011;62154;54.914;73.444;2023-03-31T04:31:18;4.43;;;1.92;;
73823;SDS011;62154;54.914;73.444;2023-03-31T04:33:51;4.88;;;2.30;;
73823;SDS011;62154;54.914;73.444;2023-03-31T04:36:18;9.75;;;2.90;;
73823;SDS011;62154;54.914;73.444;2023-03-31T04:38:46;9.57;;;2.53;;
73823;SDS011;62154;54.914;73.444;2023-03-31T04:41:16;3.58;;;1.65;;
73823;SDS011;62154;54.914;73.444;2023-03-31T04:43:43;21.80;;;6.88;;
73823;SDS011;62154;54.914;73.444;2023-03-31T04:46:11;11.95;;;3.08;;
73823;SDS011;62154;54.914;73.444;2023-03-31T04:48:38;6.18;;;1.40;;
73823;SDS011;62154;54.914;73.444;2023-03-31T04:51:05;51.05;;;13.35;;
73823;SDS011;62154;54.914;73.444;2023-03-31T04:53:32;19.02;;;5.80;;
73823;SDS011;62154;54.914;73.444;2023-03-31T04:55:59;18.58;;;2.78;;
73823;SDS011;62154;54.914;73.444;2023-03-31T04:58:27;17.52;;;2.35;;
73823;SDS011;62154;54.914;73.444;2023-03-31T05:00:59;19.27;;;3.72;;
73823;SDS011;62154;54.914;73.444;2023-03-31T05:03:26;20.83;;;5.18;;
73823;SDS011;62154;54.914;73.444;2023-03-31T05:06:04;29.33;;;5.80;;
73823;SDS011;62154;54.914;73.444;2023-03-31T05:08:31;23.10;;;3.75;;
73823;SDS011;62154;54.914;73.444;2023-03-31T05:11:01;3.05;;;1.25;;
73823;SDS011;62154;54.914;73.444;2023-03-31T05:13:28;7.95;;;1.58;;
73823;SDS011;62154;54.914;73.444;2023-03-31T05:15:55;13.98;;;3.08;;
73823;SDS011;62154;54.914;73.444;2023-03-31T05:18:22;8.85;;;2.72;;
73823;SDS011;62154;54.914;73.444;2023-03-31T05:20:49;8.18;;;1.88;;
73823;SDS011;62154;54.914;73.444;2023-03-31T05:23:16;9.90;;;2.97;;
73823;SDS011;62154;54.914;73.444;2023-03-31T05:25:44;12.63;;;2.80;;
73823;SDS011;62154;54.914;73.444;2023-03-31T05:28:11;12.40;;;2.42;;
73823;SDS011;62154;54.914;73.444;2023-03-31T05:30:38;5.75;;;1.50;;
73823;SDS011;62154;54.914;73.444;2023-03-31T05:33:08;7.72;;;2.55;;
73823;SDS011;62154;54.914;73.444;2023-03-31T05:35:35;10.77;;;1.52;;
73823;SDS011;62154;54.914;73.444;2023-03-31T05:38:02;10.13;;;2.22;;
73823;SDS011;62154;54.914;73.444;2023-03-31T05:40:29;11.02;;;2.90;;
73823;SDS011;62154;54.914;73.444;2023-03-31T05:42:56;16.10;;;3.17;;
73823;SDS011;62154;54.914;73.444;2023-03-31T05:45:23;11.00;;;2.40;;
73823;SDS011;62154;54.914;73.444;2023-03-31T05:47:51;12.85;;;2.70;;
73823;SDS011;62154;54.914;73.444;2023-03-31T05:50:28;7.97;;;2.90;;
73823;SDS011;62154;54.914;73.444;2023-03-31T05:52:55;9.30;;;1.48;;
73823;SDS011;62154;54.914;73.444;2023-03-31T05:55:34;7.65;;;1.52;;
73823;SDS011;62154;54.914;73.444;2023-03-31T05:58:02;8.70;;;1.73;;
73823;SDS011;62154;54.914;73.444;2023-03-31T06:00:38;4.53;;;1.70;;
73823;SDS011;62154;54.914;73.444;2023-03-31T06:03:05;6.72;;;1.65;;
73823;SDS011;62154;54.914;73.444;2023-03-31T06:05:39;10.27;;;1.88;;
73823;SDS011;62154;54.914;73.444;2023-03-31T06:08:07;7.70;;;1.80;;
73823;SDS011;62154;54.914;73.444;2023-03-31T06:10:34;15.43;;;2.10;;
73823;SDS011;62154;54.914;73.444;2023-03-31T06:13:03;20.50;;;2.75;;
73823;SDS011;62154;54.914;73.444;2023-03-31T06:15:31;16.25;;;3.05;;
73823;SDS011;62154;54.914;73.444;2023-03-31T06:17:58;16.77;;;3.40;;
73823;SDS011;62154;54.914;73.444;2023-03-31T06:20:25;26.00;;;4.70;;
73823;SDS011;62154;54.914;73.444;2023-03-31T06:23:02;19.02;;;3.20;;
73823;SDS011;62154;54.914;73.444;2023-03-31T06:25:29;19.38;;;3.97;;
73823;SDS011;62154;54.914;73.444;2023-03-31T06:27:56;12.75;;;2.95;;
73823;SDS011;62154;54.914;73.444;2023-03-31T06:30:23;7.97;;;2.65;;
73823;SDS011;62154;54.914;73.444;2023-03-31T06:32:51;14.05;;;3.22;;
73823;SDS011;62154;54.914;73.444;2023-03-31T06:35:18;21.55;;;3.10;;
73823;SDS011;62154;54.914;73.444;2023-03-31T06:37:45;18.13;;;3.00;;
73823;SDS011;62154;54.914;73.444;2023-03-31T06:40:12;8.63;;;3.35;;
73823;SDS011;62154;54.914;73.444;2023-03-31T06:42:39;11.70;;;2.50;;
73823;SDS011;62154;54.914;73.444;2023-03-31T06:45:06;12.85;;;3.03;;
73823;SDS011;62154;54.914;73.444;2023-03-31T06:47:34;9.38;;;2.58;;
73823;SDS011;62154;54.914;73.444;2023-03-31T06:50:04;11.63;;;1.83;;
73823;SDS011;62154;54.914;73.444;2023-03-31T06:52:34;17.50;;;2.47;;
73823;SDS011;62154;54.914;73.444;2023-03-31T06:55:07;20.63;;;2.70;;
73823;SDS011;62154;54.914;73.444;2023-03-31T06:57:35;19.70;;;2.78;;
73823;SDS011;62154;54.914;73.444;2023-03-31T07:00:03;12.30;;;3.47;;
73823;SDS011;62154;54.914;73.444;2023-03-31T07:02:31;14.27;;;3.25;;
73823;SDS011;62154;54.914;73.444;2023-03-31T07:04:58;22.08;;;3.50;;
73823;SDS011;62154;54.914;73.444;2023-03-31T07:07:32;21.85;;;2.78;;
73823;SDS011;62154;54.914;73.444;2023-03-31T07:09:59;23.85;;;3.67;;
73823;SDS011;62154;54.914;73.444;2023-03-31T07:12:26;12.77;;;2.47;;
73823;SDS011;62154;54.914;73.444;2023-03-31T07:14:54;19.20;;;2.85;;
73823;SDS011;62154;54.914;73.444;2023-03-31T07:17:21;21.77;;;3.30;;
73823;SDS011;62154;54.914;73.444;2023-03-31T07:19:56;30.20;;;3.33;;
73823;SDS011;62154;54.914;73.444;2023-03-31T07:22:23;18.25;;;4.05;;
73823;SDS011;62154;54.914;73.444;2023-03-31T07:24:50;24.15;;;3.22;;
73823;SDS011;62154;54.914;73.444;2023-03-31T07:27:19;19.27;;;3.95;;
73823;SDS011;62154;54.914;73.444;2023-03-31T07:29:46;22.23;;;4.22;;
73823;SDS011;62154;54.914;73.444;2023-03-31T07:32:13;27.17;;;3.42;;
73823;SDS011;62154;54.914;73.444;2023-03-31T07:34:41;13.23;;;3.55;;
73823;SDS011;62154;54.914;73.444;2023-03-31T07:37:08;22.85;;;3.63;;
73823;SDS011;62154;54.914;73.444;2023-03-31T07:39:36;23.98;;;3.45;;
73823;SDS011;62154;54.914;73.444;2023-03-31T07:42:12;24.98;;;6.25;;
73823;SDS011;62154;54.914;73.444;2023-03-31T07:44:39;30.95;;;4.38;;
73823;SDS011;62154;54.914;73.444;2023-03-31T07:47:06;23.63;;;3.75;;
73823;SDS011;62154;54.914;73.444;2023-03-31T07:49:33;41.10;;;3.97;;
73823;SDS011;62154;54.914;73.444;2023-03-31T07:52:01;15.02;;;2.72;;
73823;SDS011;62154;54.914;73.444;2023-03-31T07:54:28;4.74;;;2.11;;
73823;SDS011;62154;54.914;73.444;2023-03-31T07:56:55;14.65;;;2.70;;
73823;SDS011;62154;54.914;73.444;2023-03-31T07:59:22;10.93;;;2.83;;
73823;SDS011;62154;54.914;73.444;2023-03-31T08:01:49;16.73;;;2.35;;
73823;SDS011;62154;54.914;73.444;2023-03-31T08:04:17;15.85;;;2.95;;
73823;SDS011;62154;54.914;73.444;2023-03-31T08:06:44;6.70;;;2.22;;
73823;SDS011;62154;54.914;73.444;2023-03-31T08:09:11;11.45;;;2.78;;
73823;SDS011;62154;54.914;73.444;2023-03-31T08:11:38;14.82;;;3.60;;
73823;SDS011;62154;54.914;73.444;2023-03-31T08:14:05;11.68;;;2.25;;
73823;SDS011;62154;54.914;73.444;2023-03-31T08:16:32;18.10;;;2.78;;
73823;SDS011;62154;54.914;73.444;2023-03-31T08:18:59;5.47;;;1.60;;
73823;SDS011;62154;54.914;73.444;2023-03-31T08:21:37;8.02;;;1.77;;
73823;SDS011;62154;54.914;73.444;2023-03-31T08:24:07;9.88;;;1.90;;
73823;SDS011;62154;54.914;73.444;2023-03-31T08:26:34;5.83;;;1.97;;
73823;SDS011;62154;54.914;73.444;2023-03-31T08:29:07;7.95;;;1.83;;
73823;SDS011;62154;54.914;73.444;2023-03-31T08:31:34;8.75;;;2.13;;
73823;SDS011;62154;54.914;73.444;2023-03-31T08:34:12;5.82;;;1.70;;
73823;SDS011;62154;54.914;73.444;2023-03-31T08:36:39;8.10;;;1.95;;
73823;SDS011;62154;54.914;73.444;2023-03-31T08:39:07;13.80;;;2.53;;
73823;SDS011;62154;54.914;73.444;2023-03-31T08:41:52;10.55;;;1.75;;
73823;SDS011;62154;54.914;73.444;2023-03-31T08:46:47;8.25;;;2.25;;
73823;SDS011;62154;54.914;73.444;2023-03-31T08:49:18;11.40;;;2.00;;
73823;SDS011;62154;54.914;73.444;2023-03-31T08:54:47;5.93;;;1.60;;
73823;SDS011;62154;54.914;73.444;2023-03-31T08:57:21;6.93;;;1.83;;
73823;SDS011;62154;54.914;73.444;2023-03-31T08:59:50;8.27;;;1.63;;
73823;SDS011;62154;54.914;73.444;2023-03-31T09:02:33;5.70;;;1.58;;
73823;SDS011;62154;54.914;73.444;2023-03-31T09:07:49;9.82;;;1.58;;
73823;SDS011;62154;54.914;73.444;2023-03-31T09:10:25;5.35;;;1.38;;
73823;SDS011;62154;54.914;73.444;2023-03-31T09:13:00;11.35;;;3.20;;
73823;SDS011;62154;54.914;73.444;2023-03-31T09:20:45;8.45;;;2.53;;
73823;SDS011;62154;54.914;73.444;2023-03-31T09:25:47;7.35;;;1.35;;
73823;SDS011;62154;54.914;73.444;2023-03-31T09:28:27;15.07;;;4.32;;
73823;SDS011;62154;54.914;73.444;2023-03-31T09:30:55;7.45;;;2.58;;
73823;SDS011;62154;54.914;73.444;2023-03-31T09:33:27;6.68;;;2.10;;
73823;SDS011;62154;54.914;73.444;2023-03-31T09:36:00;8.40;;;1.88;;
73823;SDS011;62154;54.914;73.444;2023-03-31T09:38:28;15.95;;;2.05;;
73823;SDS011;62154;54.914;73.444;2023-03-31T09:40:56;6.82;;;2.13;;
73823;SDS011;62154;54.914;73.444;2023-03-31T09:43:25;6.28;;;2.20;;
73823;SDS011;62154;54.914;73.444;2023-03-31T09:45:52;13.43;;;2.07;;
73823;SDS011;62154;54.914;73.444;2023-03-31T09:48:26;6.22;;;2.05;;
73823;SDS011;62154;54.914;73.444;2023-03-31T09:50:57;10.07;;;3.25;;
73823;SDS011;62154;54.914;73.444;2023-03-31T09:56:03;5.70;;;1.70;;
73823;SDS011;62154;54.914;73.444;2023-03-31T09:58:30;19.30;;;8.00;;
73823;SDS011;62154;54.914;73.444;2023-03-31T10:01:18;10.15;;;4.18;;
73823;SDS011;62154;54.914;73.444;2023-03-31T10:03:49;10.43;;;2.40;;
73823;SDS011;62154;54.914;73.444;2023-03-31T10:06:17;5.18;;;1.40;;
73823;SDS011;62154;54.914;73.444;2023-03-31T10:08:57;7.10;;;1.65;;
73823;SDS011;62154;54.914;73.444;2023-03-31T10:11:25;10.85;;;1.60;;
73823;SDS011;62154;54.914;73.444;2023-03-31T10:14:09;7.38;;;2.30;;
73823;SDS011;62154;54.914;73.444;2023-03-31T10:16:43;6.50;;;1.53;;
73823;SDS011;62154;54.914;73.444;2023-03-31T10:19:23;9.75;;;1.83;;
73823;SDS011;62154;54.914;73.444;2023-03-31T10:21:58;10.82;;;6.25;;
73823;SDS011;62154;54.914;73.444;2023-03-31T10:24:26;4.45;;;1.42;;
73823;SDS011;62154;54.914;73.444;2023-03-31T10:27:03;7.68;;;2.08;;
73823;SDS011;62154;54.914;73.444;2023-03-31T10:29:32;11.75;;;4.28;;
73823;SDS011;62154;54.914;73.444;2023-03-31T10:32:04;6.07;;;1.85;;
73823;SDS011;62154;54.914;73.444;2023-03-31T10:34:36;6.75;;;1.77;;
73823;SDS011;62154;54.914;73.444;2023-03-31T10:37:07;7.60;;;1.88;;
73823;SDS011;62154;54.914;73.444;2023-03-31T10:39:37;8.23;;;1.77;;
73823;SDS011;62154;54.914;73.444;2023-03-31T10:42:10;5.07;;;1.30;;
73823;SDS011;62154;54.914;73.444;2023-03-31T10:44:37;12.10;;;1.63;;
73823;SDS011;62154;54.914;73.444;2023-03-31T10:47:15;11.18;;;2.20;;
73823;SDS011;62154;54.914;73.444;2023-03-31T10:49:42;5.60;;;1.20;;
73823;SDS011;62154;54.914;73.444;2023-03-31T10:52:21;11.63;;;1.95;;
73823;SDS011;62154;54.914;73.444;2023-03-31T10:54:58;4.38;;;1.40;;
73823;SDS011;62154;54.914;73.444;2023-03-31T10:57:35;8.50;;;2.08;;
73823;SDS011;62154;54.914;73.444;2023-03-31T11:05:50;9.98;;;2.80;;
73823;SDS011;62154;54.914;73.444;2023-03-31T11:08:33;8.95;;;2.80;;
73823;SDS011;62154;54.914;73.444;2023-03-31T11:13:57;9.50;;;2.08;;
73823;SDS011;62154;54.914;73.444;2023-03-31T11:16:37;17.45;;;3.22;;
73823;SDS011;62154;54.914;73.444;2023-03-31T11:19:34;5.82;;;1.58;;
73823;SDS011;62154;54.914;73.444;2023-03-31T11:22:19;5.78;;;1.73;;
73823;SDS011;62154;54.914;73.444;2023-03-31T11:25:09;10.73;;;2.40;;
73823;SDS011;62154;54.914;73.444;2023-03-31T11:27:56;41.28;;;15.00;;
73823;SDS011;62154;54.914;73.444;2023-03-31T11:30:29;16.67;;;4.55;;
73823;SDS011;62154;54.914;73.444;2023-03-31T11:33:19;22.73;;;2.53;;
73823;SDS011;62154;54.914;73.444;2023-03-31T11:38:33;7.82;;;2.00;;
73823;SDS011;62154;54.914;73.444;2023-03-31T11:41:04;10.05;;;1.90;;
73823;SDS011;62154;54.914;73.444;2023-03-31T11:44:00;8.88;;;2.03;;
73823;SDS011;62154;54.914;73.444;2023-03-31T11:46:49;24.90;;;8.20;;
73823;SDS011;62154;54.914;73.444;2023-03-31T11:49:25;3.15;;;1.70;;
73823;SDS011;62154;54.914;73.444;2023-03-31T11:51:54;14.27;;;3.88;;
73823;SDS011;62154;54.914;73.444;2023-03-31T11:54:38;18.48;;;5.95;;
73823;SDS011;62154;54.914;73.444;2023-03-31T11:57:14;11.17;;;3.17;;
73823;SDS011;62154;54.914;73.444;2023-03-31T11:59:43;15.85;;;5.43;;
73823;SDS011;62154;54.914;73.444;2023-03-31T12:02:17;9.32;;;2.88;;
73823;SDS011;62154;54.914;73.444;2023-03-31T12:04:47;7.13;;;2.08;;
73823;SDS011;62154;54.914;73.444;2023-03-31T12:07:28;8.88;;;2.97;;
73823;SDS011;62154;54.914;73.444;2023-03-31T12:12:32;15.93;;;4.00;;
73823;SDS011;62154;54.914;73.444;2023-03-31T12:18:01;9.50;;;2.08;;
73823;SDS011;62154;54.914;73.444;2023-03-31T12:20:31;30.15;;;8.63;;
73823;SDS011;62154;54.914;73.444;2023-03-31T12:23:02;80.28;;;19.38;;
73823;SDS011;62154;54.914;73.444;2023-03-31T12:25:43;30.08;;;13.43;;
73823;SDS011;62154;54.914;73.444;2023-03-31T12:28:11;7.23;;;2.30;;
73823;SDS011;62154;54.914;73.444;2023-03-31T12:30:39;13.55;;;1.80;;
73823;SDS011;62154;54.914;73.444;2023-03-31T12:33:25;24.42;;;7.07;;
73823;SDS011;62154;54.914;73.444;2023-03-31T12:35:57;16.77;;;6.15;;
73823;SDS011;62154;54.914;73.444;2023-03-31T12:41:15;9.13;;;2.40;;
73823;SDS011;62154;54.914;73.444;2023-03-31T12:46:33;17.00;;;5.40;;
73823;SDS011;62154;54.914;73.444;2023-03-31T12:59:35;36.70;;;10.57;;
73823;SDS011;62154;54.914;73.444;2023-03-31T13:04:36;96.43;;;21.98;;
73823;SDS011;62154;54.914;73.444;2023-03-31T13:07:04;10.50;;;3.00;;
73823;SDS011;62154;54.914;73.444;2023-03-31T13:09:38;13.57;;;3.27;;
73823;SDS011;62154;54.914;73.444;2023-03-31T13:12:13;80.50;;;18.40;;
73823;SDS011;62154;54.914;73.444;2023-03-31T13:14:42;98.85;;;21.02;;
73823;SDS011;62154;54.914;73.444;2023-03-31T13:19:40;113.45;;;37.38;;
73823;SDS011;62154;54.914;73.444;2023-03-31T13:22:25;122.32;;;38.10;;
73823;SDS011;62154;54.914;73.444;2023-03-31T13:24:53;59.85;;;22.08;;
73823;SDS011;62154;54.914;73.444;2023-03-31T13:27:29;126.50;;;37.58;;
73823;SDS011;62154;54.914;73.444;2023-03-31T13:29:56;85.50;;;28.98;;
73823;SDS011;62154;54.914;73.444;2023-03-31T13:32:26;171.50;;;50.88;;
73823;SDS011;62154;54.914;73.444;2023-03-31T13:35:12;213.68;;;56.33;;
73823;SDS011;62154;54.914;73.444;2023-03-31T13:48:23;120.20;;;24.27;;
73823;SDS011;62154;54.914;73.444;2023-03-31T13:56:38;340.70;;;65.93;;
73823;SDS011;62154;54.914;73.444;2023-03-31T14:06:54;18.67;;;3.20;;
73823;SDS011;62154;54.914;73.444;2023-03-31T14:09:33;14.00;;;4.25;;
73823;SDS011;62154;54.914;73.444;2023-03-31T14:12:17;75.13;;;26.88;;
73823;SDS011;62154;54.914;73.444;2023-03-31T14:14:45;50.20;;;15.57;;
73823;SDS011;62154;54.914;73.444;2023-03-31T14:17:12;101.15;;;31.08;;
73823;SDS011;62154;54.914;73.444;2023-03-31T14:22:15;100.38;;;35.35;;
73823;SDS011;62154;54.914;73.444;2023-03-31T14:30:06;13.85;;;5.70;;
73823;SDS011;62154;54.914;73.444;2023-03-31T14:35:23;14.65;;;5.50;;
73823;SDS011;62154;54.914;73.444;2023-03-31T14:37:52;18.23;;;5.85;;
73823;SDS011;62154;54.914;73.444;2023-03-31T14:40:20;13.50;;;4.87;;
73823;SDS011;62154;54.914;73.444;2023-03-31T14:42:47;8.20;;;3.95;;
73823;SDS011;62154;54.914;73.444;2023-03-31T14:45:21;11.75;;;3.90;;
73823;SDS011;62154;54.914;73.444;2023-03-31T14:47:57;32.75;;;14.52;;
73823;SDS011;62154;54.914;73.444;2023-03-31T14:50:32;20.75;;;5.88;;
73823;SDS011;62154;54.914;73.444;2023-03-31T14:53:00;12.75;;;5.40;;
73823;SDS011;62154;54.914;73.444;2023-03-31T14:55:28;26.58;;;7.40;;
73823;SDS011;62154;54.914;73.444;2023-03-31T14:58:01;39.55;;;16.33;;
73823;SDS011;62154;54.914;73.444;2023-03-31T15:00:32;13.77;;;5.30;;
73823;SDS011;62154;54.914;73.444;2023-03-31T15:03:00;10.25;;;3.80;;
73823;SDS011;62154;54.914;73.444;2023-03-31T15:05:32;25.23;;;6.57;;
73823;SDS011;62154;54.914;73.444;2023-03-31T15:08:03;12.93;;;4.57;;
73823;SDS011;62154;54.914;73.444;2023-03-31T15:10:37;27.02;;;9.25;;
73823;SDS011;62154;54.914;73.444;2023-03-31T15:13:11;28.40;;;7.20;;
73823;SDS011;62154;54.914;73.444;2023-03-31T15:15:41;53.60;;;15.35;;
73823;SDS011;62154;54.914;73.444;2023-03-31T15:18:11;137.65;;;33.15;;
73823;SDS011;62154;54.914;73.444;2023-03-31T15:20:40;145.43;;;34.67;;
73823;SDS011;62154;54.914;73.444;2023-03-31T15:23:20;195.27;;;64.20;;
73823;SDS011;62154;54.914;73.444;2023-03-31T15:25:55;75.30;;;21.00;;
73823;SDS011;62154;54.914;73.444;2023-03-31T15:28:28;82.85;;;20.30;;
73823;SDS011;62154;54.914;73.444;2023-03-31T15:31:07;66.55;;;18.10;;
73823;SDS011;62154;54.914;73.444;2023-03-31T15:33:34;27.50;;;9.25;;
73823;SDS011;62154;54.914;73.444;2023-03-31T15:36:07;50.92;;;15.00;;
73823;SDS011;62154;54.914;73.444;2023-03-31T15:38:34;103.50;;;23.42;;
73823;SDS011;62154;54.914;73.444;2023-03-31T15:41:01;108.47;;;30.20;;
73823;SDS011;62154;54.914;73.444;2023-03-31T15:43:49;63.10;;;20.67;;
73823;SDS011;62154;54.914;73.444;2023-03-31T15:46:56;84.18;;;20.17;;
73823;SDS011;62154;54.914;73.444;2023-03-31T15:49:22;71.95;;;22.38;;
73823;SDS011;62154;54.914;73.444;2023-03-31T15:51:50;61.67;;;25.10;;
73823;SDS011;62154;54.914;73.444;2023-03-31T15:56:58;392.30;;;146.88;;
73823;SDS011;62154;54.914;73.444;2023-03-31T15:59:29;531.28;;;208.20;;
73823;SDS011;62154;54.914;73.444;2023-03-31T16:01:57;456.70;;;172.10;;
73823;SDS011;62154;54.914;73.444;2023-03-31T16:04:28;303.13;;;96.70;;
73823;SDS011;62154;54.914;73.444;2023-03-31T16:06:57;159.32;;;48.00;;
73823;SDS011;62154;54.914;73.444;2023-03-31T16:09:28;211.25;;;62.03;;
73823;SDS011;62154;54.914;73.444;2023-03-31T16:12:03;276.20;;;74.05;;
73823;SDS011;62154;54.914;73.444;2023-03-31T16:14:37;366.48;;;107.30;;
73823;SDS011;62154;54.914;73.444;2023-03-31T16:17:50;381.08;;;121.90;;
73823;SDS011;62154;54.914;73.444;2023-03-31T16:20:03;255.57;;;91.13;;
73823;SDS011;62154;54.914;73.444;2023-03-31T16:22:35;358.90;;;115.22;;
73823;SDS011;62154;54.914;73.444;2023-03-31T16:25:16;374.88;;;120.45;;
73823;SDS011;62154;54.914;73.444;2023-03-31T16:27:53;331.02;;;110.65;;
73823;SDS011;62154;54.914;73.444;2023-03-31T16:30:35;251.23;;;79.63;;
73823;SDS011;62154;54.914;73.444;2023-03-31T16:33:12;318.13;;;102.68;;
73823;SDS011;62154;54.914;73.444;2023-03-31T16:35:43;169.30;;;59.67;;
73823;SDS011;62154;54.914;73.444;2023-03-31T16:38:14;276.67;;;101.55;;
73823;SDS011;62154;54.914;73.444;2023-03-31T16:40:43;230.35;;;82.55;;
73823;SDS011;62154;54.914;73.444;2023-03-31T16:45:49;92.68;;;38.25;;
73823;SDS011;62154;54.914;73.444;2023-03-31T16:48:27;45.67;;;13.40;;
73823;SDS011;62154;54.914;73.444;2023-03-31T16:51:04;101.30;;;30.02;;
73823;SDS011;62154;54.914;73.444;2023-03-31T16:53:33;43.75;;;14.93;;
73823;SDS011;62154;54.914;73.444;2023-03-31T16:56:05;56.08;;;15.95;;
73823;SDS011;62154;54.914;73.444;2023-03-31T16:58:43;101.60;;;24.85;;